MARATONA DEL RISO

Data Luogo Categoria
1 maggio 2011 Piemonte->Vercelli
Strada->Da 0 a 15 Km
Strada->Maratona
__Recensione
Maratona del Riso tutta tricolore

VERCELLI – Nel 150° anniversario dell’Unità d’Italia la Maratona del riso 2011 parla italiano. Nella splendida cornice dell’abbazia si Sant’Andrea una meravigliosa giornata di sole ha reso mozzafiato l’ottava Maratona del Riso. Vito Sardella atleta pugliese del Violetta Club ha vinto la corsa con il tempo di 2h26′22”, in una gara condotta dall’inizio alla fine e combattuta fino all’infortunio muscolare che ha tolto di gara il campione uscente Emanuele Zenucchi.

Il barese, salito al nord con l’obiettivo dichiarato di scendere sotto le 2h20′, vista la  peculiarità del percorso tutto in piano, ha patito il caldo improvviso dopo le piogge degli ultimi giorni. Caldo che ha falcidiato la pattuglia dei partenti, costringendo molti a ritirarsi. Secondo classificato Stefano Ripamonti con il tempo di 2h31′06”; al terzo posto Pietro Colnaghi che ha terminato la sua gara con un buon 2h37′42”.

Anche in campo femminile la bandiera che sventola più in alto è stata quella tricolore : la valdostana Catherine Bertone si è imposta con il tempo di 2h45′40”; al secondo posto la campionessa uscente Marija Vrajc che  ha terminato di poco sopra le tre ore con il tempo di 3h01′38”; ultimo gradino del podio per Monica Casiraghi in 3h11′22”.

Nel Gran Premio della Città di Vercelli sulla distanza di 10 km si è invece imposto Agostino Lanzo della A.S.D. Podismo di Sera, mentre in campo femminile la vittoria ha sorriso a Tatiana Bianconi della Amatori Lecco.

Per completare la festa, anche quest’anno si è disputata la corsa non competitiva per tutti, abbinata ad un progetto per la raccolta di fondi contro il cancro. La Corrivercelli  “Memorial Marco Opezzo”  ha portato centinaia di sportivi vercellesi a riscoprire le bellezze della città con l’abituale sgambata non competitiva. Una giornata infine da incorniciare e con un incessante incitamento riservato a tutti gli atleti, da un pubblico numeroso e festante assiepato soprattutto nel tratto finale di corso Garibaldi, cornice del traguardo.

__Classifica
Maratona del Riso (01 Maggio 2011)
Clas. Pett. Atleta Società Anno Cat. Prestazione
1 3 SARDELLA VITO VIOLETTACLUB 1974 AJPSTM 2:26:22.90
2 424 RIPAMONTI STEFANO C.T.L. 3 ATLETICA 1974 AJPSTM 2:31:06.45
3 194 COLNAGHI PIETRO C.T.L. 3 ATLETICA 1974 AJPSTM 2:37:42.00
4 270 GAUDINO DAVIDE ALDO A.S.D. GRAVELLONA VCO 1974 AMM35 2:42:05.60
5 139 BERTUGLIA ANDREA ASDP ATLETICA PINEROLO 1974 AMM35 2:44:45.60
6 534 BERTONE CATHERINE ATLETICA SANDRO CALVESI 1972 AJPSTF 2:45:40.05
7 320 MAIANDI LORENZO ATLETICA VERCELLI 78 1959 AMM50 2:46:38.05
8 362 NAVA SIMONE G. ALPINISTICO VERTOVESE 1979 AJPSTM 2:46:42.70
9 143 BOASSO ENRICO A.S.D.ATLETICA CARMAGNOLA 1982 AJPSTM 2:47:08.95
10 414 RAMPONI GIOVANNI MARIA ATL. 99 VITTUONE 1959 AMM50 2:48:23.65
11 462 TANTARDINI VASCO POL. PAGNONA 1974 AMM35 2:48:39.85
12 319 MAESTRONI LUCA ROAD RUNNERS CLUB MILANO 1973 MM35 2:49:45.85
13 167 CANTONE GIULIO UNIONE SPORT. ATLETICA CAFASSE 1972 MM35 2:50:55.00
14 321 MAMELI ALESSANDRO AS TESPIENSE QUARTU 1970 MM40 2:52:44.10
15 378 PAOLETTI NERINO MARATOLANDIA 1967 MM40 2:54:39.15
16 9 MALFATTI PIO ATLETICA ROTALIANA 1962 MM45 2:55:06.50
17 160 CAFORIO CLAUDIO G.S.A. BRUGHERIO 1963 MM45 2:55:25.25
18 171 CARBONE MASSIMO ATL.FOLLONICA 1968 MM40 2:55:36.70
19 274 GHEZZI MATTEO ATL. VIRTUS SENAGO 1982 JPSTM 2:56:51.10
20 423 RIGHETTI IVAN MARATOLANDIA 1969 MM40 2:56:55.80
21 581 DEBIZE JEROME GIRO D'ITALIA RUN 1977 TG 2:57:00.95
22 513 DE RUDAS PIETRO GRUPPO CITTA' DI GENOVA 1977 JPSTM 2:57:29.00
23 313 LUNINI ADRIANO ATL. STRAMILANO 1962 MM45 2:57:36.05
24 251 FLORE CLAUDIO CRAL TRASPORTI TORINESI 1978 JPSTM 2:57:46.85
25 124 BAROVERO PAOLO ASDGRUPPOPODISTI ALBESI MOKAFE 1957 MM50 2:58:26.50
26 465 TARTAGLIA ALBERTO A. S. D. CADDESE 1978 JPSTM 2:59:18.70
27 425 RIPAMONTI CESARE C.T.L. 3 ATLETICA 1961 MM50 2:59:32.45
28 163 CAMARDA ENRICO A.S.D. PODISTICA 2000 MARENE 1975 JPSTM 2:59:42.90
29 2 VRAJIC MARIJA CROAZIA 1976 AJPSTF 3:01:38.50
30 98 ALBERTO CHIAFFREDO A.S.D.POD. VALLE INFERNOTTO 1957 MM50 3:02:11.50
31 543 MINARDI MICHELE PODISTICA TRANESE 1960 MM50 3:03:10.00
32 152 BOSCHETTO EDOARDO 1982 TG 3:04:42.70
33 494 VIPIANA ANDREA UNIONE SPORT. ATLETICA CAFASSE 1967 MM40 3:04:58.60
34 431 SACCO ALESSANDRO ATLETICA PALZOLA 1968 MM40 3:05:12.05
35 116 AUDISIO VALTER TEAM 2000 TORINO 1963 MM45 3:05:22.45
36 472 TODARO FERDINANDO POL. CORNIGLIANO 79 DILETT. 1962 MM45 3:06:56.85
37 481 VALZ COMINET CARLO GSA POLLONE 1968 TG 3:07:34.30
38 460 STRANO CARMELO MULTEDO 1930 1956 MM55 3:08:18.45
39 276 GIAMBALVO IGNAZIO SUPERUNNERS TEAM 1963 MM45 3:08:33.65
40 154 BOTTIN LORIS TURIN MARATHON 1974 MM35 3:09:59.15
41 203 CORNIANI FRANCO LA VETTA MONGRANDO 1961 MM50 3:10:14.80
42 269 GATTO FRANCO TURIN MARATHON 1966 MM45 3:10:16.00
43 226 DELPONTE GIANFRANCO G.S.R. FERRERO A.S.D. 1955 MM55 3:10:22.20
44 346 MERLI ANGELO G.P. CASALESE 1958 MM50 3:11:11.30
45 4 CASIRAGHI MONICA TEAM CELLFOOD 1969 MF40 3:11:22.20
46 363 NERI ELENA ATLETICA 85 FAENZA 1975 MF35 3:11:40.25
47 216 DE CESARE FLAVIO POD.DEGLI AMICI PIANEZZA TO 1973 MM35 3:11:42.55
48 377 PANZERI ALBERTO G.S. AVIS OGGIONO 1958 MM50 3:12:16.05
49 166 CANTA PIERCARLO CRAL SOCIETA' REALE MUTUA ASS. 1963 MM45 3:12:43.20
50 252 FOLLADORI ALDO 2002 MARATHON CLUB 1955 MM55 3:13:10.60
51 263 GALBIATI ANDREA SESIA RUNNING 1969 MM40 3:13:22.05
52 503 ZANTEDESCHI CRISTINA RUNNERS BERGAMO 1966 MF45 3:13:57.35
53 122 BARBERIS ANTONIO S. D. BAUDENASCA 1950 MM60 3:14:01.95
54 214 DANIELI STEFANO SESIA RUNNING 1969 MM40 3:14:13.85
55 448 SILVESTRINI IVANO ATLETICRALS2-TEATRO ALLA SCALA 1973 MM35 3:14:31.45
56 358 MOSCONE MASSIMO 1970 TG 3:14:36.60
57 195 COLO' GIOVANNI ATLETICA ALTO GARDA E LEDRO 1989 JPSTM 3:15:38.25
58 113 ARMANINO ALERAMO GRUPPO CITTA' DI GENOVA 1971 JPSTM 3:16:05.15
59 302 LEONARDI LORENZO 1983 TG 3:16:07.45
60 328 MARCHI STEFANO CIRCOLO CANOTTIERI ANIENE 1971 MM40 3:16:12.90
61 486 VERONA STEFANO POD. BIASOLA 1975 MM35 3:16:19.90
62 370 PAGANI PAOLO GSA VALSESIA 1967 TG 3:16:37.95
63 344 MENNI FABIO ASD RUNANDTRAIL 1967 MM40 3:17:11.65
64 518 FERRERO FABRIZIO GRUPPO SPORTIVI CHIVASSESI 1971 MM40 3:17:36.55
65 461 TAMAI GRAZIANO PODISTICA MELE 1970 MM40 3:17:55.55
66 419 REPETTO GABRIELLA PODISTICA MELE 1971 MF40 3:17:55.55
67 107 ANGELERI PAOLO CEDAS LANCIA VERRONE 1961 MM50 3:18:58.20
68 455 SPREAFICO MARCELLO ATL. LAGO DEL SEGRINO 1978 JPSTM 3:19:06.30
69 500 ZANCAN MAURIZIO ATLETICA OVEST TICINO 1964 MM45 3:19:12.75
70 464 TARASCHI GIANFRANCO 1972 TG 3:19:50.30
71 156 BRUSTIA DANIELE ATLETICA TRECATE 1972 MM35 3:20:04.85
72 555 PAONESSA MARIO 1970 TG 3:20:40.25
73 577 FERRERO RENATO TURIN MARATHON 1979 TG 3:20:50.25
74 117 AVANZI FABRIZIO 1963 TG 3:20:51.40
75 325 MARCARELLI EDUARDO G.P. VILLASANTESE 1973 MM35 3:21:10.05
76 262 FUSETTI ADAMO G.S. ATL. NICHELINO 1971 MM40 3:21:11.50
77 466 TASSI EROS 1962 TG 3:21:40.35
78 303 LEONARDI ARIANNA 1980 TG 3:21:47.20
79 334 MARTIGNONI MASSIMILIANO ATL. SAN MARCO U.S. ACLI 1970 MM40 3:22:10.85
80 118 BAGNASACCO FRANCO ATLETICA TORINO FONDIARIA-SAI 1966 MM45 3:22:23.55
81 349 MILLUL NICOLA EUROPA SPORTING CLUB 1982 JPSTM 3:22:33.10
82 185 CHIEPPA GIUSEPPE PIETRO MICCA BIELLA 1973 MM35 3:22:56.70
83 372 PAGNONCELLI GIANLUCA RUNNERS BERGAMO 1964 MM45 3:23:00.35
84 176 CATTANEO MARCO RUNNERS BERGAMO 1962 MM45 3:23:01.00
85 310 LOCONTE FRANCESCO TIGER SPORT RUNNING TEAM ASD 1953 MM55 3:23:23.30
86 557 SALA ALESSANDRO 1964 TG 3:23:49.00
87 369 PADOVANI PIETRO G.P. CASALESE 1961 MM50 3:24:07.15
88 426 RISSETTO GIOVANNI MARATONETI DEL TIGULLIO 1959 MM50 3:24:44.15
89 280 GIRELLI DIEGO CUS PRO PATRIA MILANO 1955 MM55 3:24:46.00
90 348 MIGLIARO LUIGINO MARATONETI DEL TIGULLIO 1960 MM50 3:24:56.30
91 304 LEONE SIMONA G.S. MONTESTELLA 1973 AMF35 3:25:07.00
92 357 MOSCATELLI ANTONIO G.P. ALENIA 1956 MM55 3:25:14.35
93 575 RIPAMONTI DAVIDE 1981 TG 3:25:27.25
94 182 CESARETTO MARCO CEDAS LANCIA VERRONE 1967 MM40 3:25:31.60
95 430 RUFFINO FABRIZIO 1973 TG 3:26:15.15
96 123 BAROLDI LUCA GAZZETTA RUNNERS CLUB 1974 MM35 3:27:17.45
97 412 RAMPONI ALBERTO PODISTICA MELE 1959 MM50 3:27:30.85
98 257 FRATTINI SILVIO ASD RUNANDTRAIL 1966 MM45 3:27:49.35
99 361 NARDELLA DOMENICO TURIN MARATHON 1966 MM45 3:28:00.10
100 532 DI PRIMA CIRO 1969 TG 3:28:02.65
101 295 LA SANA LUCA A.S.D. ATLETICA LA CERTOSA 1972 MM35 3:28:27.50
102 485 VELLATA LUCIA ATLETICA TRECATE 1966 AMF45 3:28:50.35
103 387 PELAGATTI RODOLFO G. P. DILETT. TAPPOROSSO 1949 MM60 3:29:05.95
104 457 STANSU' GIOVANNI ATLETICA TRECATE 1966 TG 3:29:11.95
105 407 PUTTO GNERRO ALESSANDRO G. P. RIVAROLO 1977 1971 MM40 3:29:44.35
106 236 ERRIGO MARIO FERNANDO ATLETICA SETTIMESE 1962 MM45 3:30:03.05
107 162 CALDARELLI FRANCESCO ROAD RUNNERS CLUB MILANO 1966 MM45 3:30:12.05
108 218 DE GIUSEPPE DARIO AVIS TORINO 1973 MM35 3:30:22.00
109 140 BIGI LUCIANO POLISPORTIVA DIL. SAN VITTORE 1955 MM55 3:30:37.05
110 102 ALLIEVI PAOLO DOMENICO GS ROVELLO 1956 TG 3:30:41.55
111 433 SALTARI LORENZO G.S. BANCARI ROMANI 1973 MM35 3:30:54.75
112 201 CORICA LEONARDO ATLETICA MONTEROSA FOGU ARNAD 1966 MM45 3:31:03.95
113 277 GIAMMANCO MICHELE ATHLETIC TEAM PALAGIANO 1948 MM60 3:31:09.25
114 296 LAFAENZA GIUSEPPE 1973 TG 3:31:10.05
115 110 ARDENGHI GIUSEPPE G.A.P. SARONNO 1962 MM45 3:31:18.15
116 506 GAGNONE PAOLO 1970 TG 3:31:19.15
117 196 COLOMBO ANDREA ATH.RUNNER & CLIMBER BUSTO A. 1972 MM35 3:31:32.30
118 442 SBORO ALFREDO ATL. RIMINI NORD SANTARCANGELO 1946 MM65 3:32:17.00
119 484 VELA PAOLO MARATONETI GENOVESI 1963 MM45 3:32:30.10
120 273 GESTRO AMBROGIO MULTEDO 1930 1959 MM50 3:32:56.20
121 253 FOLLI MAURO 1970 TG 3:32:58.40
122 324 MARAGNO ALESSIO G.P. GORGONZOLA '88 1966 MM45 3:33:21.60
123 131 BELLIN CLAUDIO ATL. FRANCIACORTA 1965 MM45 3:33:25.80
124 458 STASI MANUEL G.S.A. VALSESIA 1970 MM40 3:33:30.85
125 404 POZZALI PIERLUIGI G.P. QUELLI DELLA VIA BARACCA 1957 MM50 3:33:31.65
126 285 GRECO ANDREA EUROATLETICA 2002 1967 MM40 3:33:57.70
127 396 PIATTI PAOLO BASE RUNNING 1968 MM40 3:34:12.15
128 450 SIRCHIA EDOARDO ATL. PAVESE 1970 MM40 3:34:14.75
129 181 CERRUTI MASSIMO ATL. OVADESE ORMIG 1958 MM50 3:34:27.30
130 415 RANFAGNI GRAZIA G.S. MAIANO 1966 MF45 3:34:45.65
131 550 TIOZZO FABRIZIO 1956 TG 3:34:52.15
132 120 BALDI MONICA G.P. AVIS VIGEVANO-GRAVELLONA 1976 MF35 3:34:53.75
133 141 BIGNOTTI MASSIMO GAZZETTA RUNNERS CLUB 1972 MM35 3:35:24.90
134 213 DAMIANO GUIDO ATL. 99 VITTUONE 1966 MM45 3:35:46.80
135 478 TUNESI MAURO A.ATL. CASOREZZO 1966 MM45 3:35:54.35
136 282 GIUNTI FEDERICO A.T.A. 1968 MM40 3:36:04.60
137 530 BEDOGNE' LUCA A.S.D.ATLETICA CARMAGNOLA 1972 MM35 3:37:49.15
138 354 MORGE' STEFANO 1973 TG 3:38:21.45
139 312 LUCO JEAN PIERRE 1961 TG 3:39:04.65
140 468 TEGGI MAURIZIO ACQUADELA BOLOGNA 1957 MM50 3:39:08.80
141 579 PIRRI CARMELO 1965 TG 3:39:08.80
142 264 GALLO DONATO A.S.D.POD. VALLE INFERNOTTO 1942 MM65 3:39:18.75
143 151 BORTOLOTTI LISA G.S. OREZZO 1979 JPSTF 3:39:21.35
144 483 VASSALLO GIUSEPPE A.S. MARATHON CLUB STATTE 1969 MM40 3:39:35.40
145 191 COCCIA FEDERICO 1977 TG 3:39:52.40
146 520 SALEMME FRANCESCO SANREMO RUNNERS 1963 MM45 3:39:55.45
147 508 CRETTI MARCO 2011 TG 3:39:58.35
148 329 MARINEO MICHELE ATLETICA VERCELLI 78 1957 MM50 3:40:18.05
149 229 DI GREGORIO VALERIO RUNNERS VALBOSSA-AZZATE 1959 MM50 3:40:41.85
150 183 CHIADO' PIAT MARCO PICO RUNNERS 1967 MM40 3:40:49.95
151 235 ERBETTA MARCO SESIA RUNNING 1965 MM45 3:40:51.25
152 392 PETRINI FLAVIO POLISPORTIVA CISER 1973 MM35 3:40:57.55
153 405 PREDA ALESSANDRO TURBOLENTO MILANO 1968 MM40 3:41:01.40
154 355 MOSCA RICCARDO AMICI DEL MOMBARONE 1968 MM40 3:41:38.05
155 398 PINTUS PATRIZIO ATL. ROVELLASCA 1972 JPSTM 3:41:58.40
156 186 CHIESA DANIELE G.S. AVIS GAMBOLO' 1970 MM40 3:42:17.20
157 429 RONZANO MAURO TURIN MARATHON 1966 MM45 3:42:20.85
158 351 MINETTI ANDREA G.S. ALTITUDE 1966 MM45 3:42:40.75
159 307 LICCHELLO ENZO TURIN MARATHON 1975 MM35 3:42:49.70
160 206 CREMONESI LUCA ROAD RUNNERS CLUB MILANO 1962 MM45 3:42:56.35
161 97 ABBRACCIAVENTO MASSIMO PODISTICA ALBEROBELLO A.S.D. 1973 MM35 3:43:19.00
162 561 FORMENTI ROBERTO 1966 TG 3:43:47.20
163 401 POLONI MARCO ATL. CINISELLO 1961 MM50 3:43:58.05
164 556 DEVIZZI ANDREA 1971 TG 3:44:48.00
165 292 IVAGNES MARCO 1976 TG 3:45:21.70
166 288 GUAGNANO DOMENICO SUPERUNNERS TEAM 1960 MM50 3:46:00.15
167 558 MAINETTI FABIO 1964 TG 3:46:09.10
168 217 DE GIGLIO FRANCESCO 1957 TG 3:46:39.90
169 487 VIAGGI RICCARDO ATLETICA TEAM MARBLEMAN 1967 MM40 3:46:40.80
170 428 ROASIO AGOSTINO G.S. INTERFORZE TORINO 1972 MM35 3:46:43.00
171 164 CAMOSSO TERESA G.S.P.T. 75 1960 MF50 3:47:03.55
172 364 NICOLUSSI MOZZE BRUNO GS VALSUGANA TRENTINO 1957 MM50 3:47:11.15
173 178 CAVALITTO MAURO TIGER SPORT RUNNING TEAM ASD 1962 MM45 3:47:21.85
174 99 ALCIATI SILVIO TURIN MARATHON 1954 MM55 3:48:23.05
175 501 ZANONI MARCO 1964 TG 3:49:04.90
176 197 CONIGLIO SALVATORE ATLETICA SETTIMESE 1954 MM55 3:49:20.35
177 576 BORDIERI MARCO I GAMBER DE CUNCURESS 1966 MM45 3:49:25.80
178 297 LANER ELFRIEDE 1966 TG 3:49:26.15
179 446 SETTEMBRINI NICOLA ATL. SAN MARCO U.S. ACLI 1965 MM45 3:49:34.80
180 559 GENTILE NICOLA 1980 TG 3:49:40.30
181 101 ALLEMANI MASSIMO ATL. OVADESE ORMIG 1972 MM35 3:50:31.80
182 381 PARODI UGO ATL. OVADESE ORMIG 1959 MM50 3:50:37.85
183 403 POZZA ERIK GRUPPO AMICI CORSA PETTINENGO 1971 MM40 3:50:39.15
184 221 DEFENDI CRISTIAN 1976 TG 3:50:43.85
185 266 GARAVAGLIA MARCO 1971 TG 3:50:44.05
186 394 PETRUZZELLI MASSIMO MARATONETI GENOVESI 1956 MM55 3:51:02.90
187 529 BRIGATI ALESSANDRO 1969 TG 3:51:13.60
188 443 SCASSA CRISTIANO CLUB DEL MESDI' 1973 MM35 3:51:56.05
189 492 VILLANO MARCO CRAL SOCIETA' REALE MUTUA ASS. 1971 MM40 3:52:05.10
190 137 BERTOLINO ERNESTO RUNNING CENTER CLUB TORINO 1972 MM35 3:52:42.90
191 246 FERRI MARIO FERNANDO ATL.CASALGUIDI M.C.L.ARISTON 1946 MM65 3:52:44.55
192 204 COTRONEO FRANCESCO CEDAS FIAT GRUPPO PODISMO 1974 MM35 3:52:54.90
193 174 CASUCCIO GIOVANNI 1955 TG 3:52:58.05
194 108 ANZOLA PAOLA SESIA RUNNING 1975 MF35 3:53:23.45
195 437 SAOS GILBERT 1961 TG 3:53:42.95
196 291 ILARDO FRANCESCO A.S.D. PRO SPORT RAVANUSA 1950 MM60 3:54:06.15
197 386 PELAGALLI LEANDRO GIORGIO CAI PISTOIA 1948 MM60 3:54:09.80
198 159 CACOPARDO MATTEO 1989 TG 3:54:15.70
199 434 SANA DOMENICO RUNNERS BERGAMO 1963 MM45 3:54:32.90
200 449 SIMONE DAVIDE 1962 TG 3:54:42.80
201 367 OLDRATI MARCO 1969 TG 3:54:43.30
202 222 DEGANI LORENZO SORESINA RUNNING CLUB 1963 MM45 3:55:00.05
203 314 LUPI ESPOSTI GIANNI POD. BIASOLA 1964 MM45 3:55:04.00
204 497 VOLA SANDRO ATL CUMIANA STILCAR 1973 MM35 3:55:06.05
205 293 JARRE DANIELE 1986 TG 3:55:13.60
206 499 ZANABONI GABRIELE ATL. 99 VITTUONE 1966 MM45 3:55:15.90
207 244 FERRARIS EMANUELE CEDAS LANCIA VERRONE 1967 MM40 3:55:33.10
208 245 FERRERI DOMENICO AMICI DELLO SPORT BRIOSCO-MI 1953 MM55 3:56:02.10
209 568 ELLI ALBERTO 1963 TG 3:56:11.95
210 309 LOCATELLI FERDINANDO RUNNERS BERGAMO 1957 MM50 3:56:54.50
211 142 BIGNOZZI MAURIZIO ATLETICA SETTIMESE 1958 MM50 3:57:05.80
212 254 FONTANA ROSARIO SORESINA RUNNING CLUB 1960 MM50 3:57:16.20
213 517 PETTITI FRANCO CHIVASSESI 1961 TG 3:57:17.90
214 454 SORRENTINO FRANCESCO ATL. ALTA VALLE BREMBANA 1962 MM45 3:57:20.80
215 522 MUHLPACHER DANIELE G.P. ALENIA 1971 MM40 3:57:23.75
216 157 BURATTI PAOLO MARATOLANDIA 1962 MM45 3:58:24.00
217 545 DONINI PAOLO 1964 TG 3:58:24.05
218 173 CASSANO MICHELE 1967 TG 3:58:24.05
219 489 VIGLINO UGO ASDGRUPPOPODISTI ALBESI MOKAFE 1962 MM45 3:58:28.10
220 408 QUARTINO MARCO PODISTICA MELE 1962 MM45 3:58:29.00
221 390 PETAZZONI MASSIMO MARCIATORI SAN GIORGIO 1968 MM40 3:58:46.25
222 247 FERRINI LORENZO MARCIATORI SAN GIORGIO 1969 MM40 3:58:51.95
223 175 CATTANEO EGIDIO SORESINA RUNNING CLUB 1955 MM55 3:58:59.40
224 441 SAVASTANO LUIGI HAPPY RUNNER CLUB 1968 MM40 3:59:10.00
225 340 MATALUCCI STEFANO ATL. MILANO 1973 MM35 3:59:19.25
226 359 MURATORE MARCO 1971 TG 3:59:22.35
227 397 PIGNANELLI ALFREDO 1952 TG 3:59:30.60
228 410 RADAELLI ATTILIO MONZA MARATHON TEAM - A.S.D. 1972 MM35 4:00:35.75
229 342 MAZZEO ANTONIO RUNNERS BERGAMO 1952 MM55 4:00:52.70
230 135 BERLATO SAMUELE ATLETICA MARATHON BELLINZAGO 1977 JPSTM 4:01:03.25
231 279 GIAMPAOLO GIOVANNI ATLETICA EST TORINO 1961 MM50 4:01:09.05
232 447 SILICATO ORESTE BASE RUNNING 1961 MM50 4:01:24.85
233 192 CODAZZA ROBERTO CASTELLO RUNNING 1965 MM45 4:02:03.85
234 467 TEDESCO GENNARO 2011 TG 4:02:26.75
235 436 SANTAGOSTINO ALBERTO 1961 TG 4:02:31.35
236 153 BOSELLI ALBERTO PODISTICA ARONA 1950 MM60 4:02:38.30
237 516 SAVIO PIERA CHIVASSESI 1961 TG 4:02:58.60
238 552 GUAGLIANO MARIO 1963 TG 4:03:18.20
239 553 ANDREONI SIMONE 1972 TG 4:03:18.25
240 109 ARCAINI ALDO G.S. ATL. NICHELINO 1961 MM50 4:03:45.35
241 368 ONDEI LUCIANO PODISTICA ARONA 1950 MM60 4:03:57.40
242 234 DRAGONETTI VINCENZO CRAL SOCIETA' REALE MUTUA ASS. 1963 MM45 4:04:01.25
243 564 BRANCA CESARE 1965 TG 4:05:29.80
244 345 MERIZZI FEDERICO POLISPORTIVA CISER 1974 MM35 4:06:03.00
245 242 FENOGLIO MARCO POLISPORTIVA CISER 1973 MM35 4:06:04.45
246 115 ASTEGIANO GIANCARLO BASE RUNNING 1964 MM45 4:06:24.75
247 232 DIFINO MARINO TURIN MARATHON 1971 MM35 4:07:46.00
248 406 PULICI MAURIZIO G.S. AVIS - SEREGNO 1961 MM50 4:09:17.80
249 586 IANNONE LUIGI 1970 TG 4:09:18.05
250 379 PAPILLO RAFFAELE GRUPPO CITTA' DI GENOVA 1957 JPSTM 4:09:45.90
251 584 CAPPUCCIO ANGELO ATLETICA SANTHIA' 1971 MM40 4:09:50.60
252 228 DI CESARE CESARE 1969 TG 4:10:09.95
253 281 GIULIANO GIOVANNI ATLETICA VARAZZE 1959 MM50 4:10:14.95
254 243 FERRARI CARLO HAPPY RUNNER CLUB 1963 MM45 4:10:30.45
255 385 PEDRAZZINI FAUSTO 1959 TG 4:10:39.35
256 413 RAMPONI LUCA 1971 TG 4:11:15.20
257 480 VAGALI CORRADO G.S. COMUNALE S. OLCESE 1967 MM40 4:12:01.60
258 337 MARTINI PIER FRANCESCO G.S. COMUNALE S. OLCESE 1968 MM40 4:12:01.65
259 256 FRANCESE ROBERTO SESIA RUNNING 1960 MM50 4:12:05.25
260 261 FURBATTO MARINO RUNNER TEAM 99 SBV 1957 MM50 4:12:06.60
261 233 DOSSENA GIOVANNA SORESINA RUNNING CLUB 1956 MF55 4:12:28.55
262 411 RADAELLI PAOLO FELICE 1959 TG 4:12:44.65
263 566 DE AMICI CARLO 1967 TG 4:12:52.80
264 289 GUELI PAOLA POD.TRANESE UNIONE INDUSTRIALE 1964 MF45 4:13:00.55
265 384 PATERNOSTRO ANDREA ATL. PARABIAGO 1948 MM60 4:13:43.80
266 417 REMONATO CARLO ATL. FRANCIACORTA 1953 MM55 4:14:14.05
267 114 ARRIGHETTI GABRIELE ATL. FRANCIACORTA 1954 MM55 4:14:14.05
268 299 LASSEN TINA ATL. NOVESE 1962 MF45 4:14:29.35
269 103 ALVA LEON JULIAN MARATONETI DEL TIGULLIO 1966 MM45 4:14:31.20
270 548 MORNATA ANGELO 1953 TG 4:15:13.55
271 541 CILIENTO NICOLA PODISTICA TRANESE MM65 4:15:21.65
272 258 FRAZZINI GIUSEPPE ATLETICRALS2-TEATRO ALLA SCALA 1968 MM40 4:15:22.10
273 491 VIGNANI PAOLA POD.TRANESE UNIONE INDUSTRIALE 1964 MF45 4:15:23.30
274 211 CURATOLI PAOLO A.P.D. PONT-SAINT-MARTIN 1962 MM45 4:15:24.30
275 574 MICCA MASSIMO TURIN MARATHON 1970 MM40 4:15:38.30
276 187 CHIESA GIUSEPPE ACQUIRUNNERS 1953 MM55 4:15:40.30
277 335 MARTINI GIOVANNI RICCIONE CORRE 1952 MM55 4:15:48.45
278 452 SORASSO MARGHERITA S. D. BAUDENASCA 1957 MF50 4:16:02.40
279 227 DESTRO LAURA ATLETICA CASELLE '93 1967 MF40 4:16:07.40
280 248 FESTA EGIDIO ATL. FRANCIACORTA 1954 MM55 4:16:21.90
281 255 FORMAGGIO ANTONELLO CEDAS LANCIA VERRONE 1967 MM40 4:17:13.35
282 128 BEASTY SUZANNE MARY PODISTICA VALPOLCEVERA 1952 MF55 4:17:21.20
283 133 BELLOMO GABRIELE ATLETICA CASELLE '93 1955 MM55 4:17:21.55
284 237 FALCINI FABRIZIO MONZA MARATHON TEAM - A.S.D. 1970 MM40 4:17:29.80
285 125 BASLETTA FAUSTO RUNNERS BERGAMO 1951 MM60 4:17:38.60
286 290 GUERRIERI GRAZIANO GRUPPO PODISTICO ROSSINI 1953 MM55 4:18:53.45
287 519 VIOLA GIUSEPPE MARIA 1964 TG 4:18:59.80
288 542 MAITA GAETANO PODISTICA TRANESE TG 4:19:15.55
289 583 FUSE' MATTEO 1973 TG 4:19:29.45
290 451 SIRONI MARCO G.S. AVIS - SEREGNO 1972 MM35 4:19:34.70
291 578 VALENTINI WALTER 1967 TG 4:19:36.95
292 350 MINA RICCARDO ATL CUMIANA STILCAR 1976 JPSTM 4:19:47.40
293 241 FELISIO ALESSANDRO ATLETICA SETTIMESE 1963 MM45 4:19:50.20
294 189 CICALA GIANCARLO GRUPPO CITTA' DI GENOVA 1956 JPSTM 4:20:10.65
295 130 BELLANTONE ROBERTO ATL. PAVESE 1972 MM35 4:20:34.15
296 496 VIZZARDI CINZIA TG 4:20:41.70
297 524 BELLONI GIORGIO ATL. OVADESE ORMIG 1950 MM60 4:21:12.15
298 391 PETRECCA MASSIMILIANO BASE RUNNING 1971 MM40 4:21:12.70
299 523 DELLAPIANA FAUSTO RUNNERS BERGAMO 1951 MM60 4:22:15.45
300 198 CONSONNI ANGELO TURBOLENTO MILANO 1960 MM50 4:22:45.95
301 421 RIETTO MASSIMO 1969 TG 4:22:57.50
302 272 GEMMA LORENZO G.P. AVIS FORLI 1954 MM55 4:23:09.25
303 365 NISTRI ALESSIO 2011 TG 4:23:10.40
304 399 PISATURO GIUSEPPE PODISTICA ARONA 1947 MM60 4:23:26.40
305 388 PELLIZZARI GIORGIO VICENZA RUNNERS 1974 MM35 4:23:30.95
306 339 MASSERANO IVO CEDAS FIAT GRUPPO PODISMO 1935 MM70 4:24:45.50
307 111 ARENA SALVATORE G.S.R. FERRERO A.S.D. 1971 MM40 4:24:51.95
308 440 SATTA MARINELLA POD.TRANESE UNIONE INDUSTRIALE 1957 MF50 4:25:00.65
309 469 TETTAMANTI ALESSANDRO N. ATL. 87 1958 MM50 4:25:10.60
310 435 SANSOE' MARCO 1968 TG 4:25:52.85
311 537 PLONER LUIGI PIETRO MICCA BIELLA 1952 MM55 4:26:56.00
312 132 BELLOMI RICCARDO RUNNER VARESE 1968 MM40 4:26:58.05
313 582 CERIANI IARNO 1981 TG 4:26:58.35
314 488 VIGANO' MANUELE 1966 TG 4:27:35.70
315 265 GALLUPPO LUCA G.S.R. FERRERO A.S.D. 1973 MM35 4:27:37.65
316 531 ROBBI FRANCESCO 1970 TG 4:27:48.95
317 479 UBERTALLI DANIELA G.S. ERMENEGILDO ZEGNA 1966 MF45 4:27:53.10
318 316 LUSONA VALENTINA 1971 TG 4:27:59.95
319 238 FAPPANI PIERLUIGI ATLETICA BRESCIA MARATHON 1956 MM55 4:28:57.05
320 366 OCCHETTI FABRIZIO NOVARA CHE CORRE 1978 JPSTM 4:30:06.00
321 148 BORRA ALESSIA A.S.D. PODISMO DI SERA 1977 JPSTF 4:30:25.20
322 301 LEO SIMONE NOVARA CHE CORRE 1978 JPSTM 4:30:36.80
323 134 BENEVENTO CORRADO ATLETICA PALZOLA 1964 MM45 4:30:46.40
324 560 GARDINI LORENZO 1953 TG 4:31:54.95
325 395 PEVIANI PIERLUIGI G.P. CASALESE 1959 MM50 4:33:15.90
326 371 PAGAZZI GIOVANNI CESARE 1965 TG 4:33:16.15
327 544 PIREDDA IGNAZIO PODISTICA TRANESE 4:33:31.95
328 456 STAGNARO SERGIO MARATONETI DEL TIGULLIO 1958 MM50 4:33:35.25
329 149 BORRA CRISTINA IL GIRO D'ITALIA RUN 1961 MF50 4:33:58.05
330 170 CAPORASO ENZO IL GIRO D'ITALIA RUN 1959 MM50 4:33:58.10
331 294 KERNEIS CHRISTIAN 1961 TG 4:34:23.60
332 126 BATTIGELLI SILVANO GEMONATLETICA S.R.L. DIL. 1960 MM50 4:35:02.65
333 267 GARAVAGLIA ANGELO G.P. QUELLI DELLA VIA BARACCA 1954 MM55 4:35:12.90
334 562 TAMBORINI ANGELO 1961 TG 4:35:53.55
335 505 ZOANI SIMONE 1982 TG 4:36:41.55
336 323 MANGINO PIERO S.S. RUNNERS LOANO 1957 MM50 4:37:17.20
337 482 VANDONI LORENZO U.S.C. MARATHON VERBANIA 1966 MM45 4:38:11.15
338 179 CELLINO GIUSEPPE TURIN MARATHON 1956 MM55 4:38:11.55
339 352 MONASTEROLO FRANCA AVIS TORINO 1943 MF65 4:39:07.55
340 177 CATTANEO ALESSANDRO RUNNING SARONNO 1978 JPSTM 4:39:31.20
341 439 SASSONE GIANLUCA AMATORI MASTERS NOVARA 1971 MM40 4:40:20.75
342 169 CAPONERA ROBERTO 1960 TG 4:40:38.10
343 172 CARIGNANI VITO AMATORI LECCE 1943 MM65 4:41:17.85
344 477 TUNDO GIUSEPPE ATL. C.R.A. ITALTEL 1950 MM60 4:41:29.15
345 475 TRINELLI ROBERTO POD.TRANESE UNIONE INDUSTRIALE 1965 MM45 4:41:42.15
346 119 BAI ALFREDO POD.TRANESE UNIONE INDUSTRIALE 1966 MM45 4:41:42.70
347 286 GRIONI DANIELE G.P. CASALESE 1967 MM40 4:43:37.55
348 147 BORDONI FABRIZIO G.P. AVIS PAVIA 1955 MM55 4:43:38.15
349 298 LANZONE ELIO COSTANZO LIB. FORNO SERGIO BENETTI 1960 MM50 4:43:58.15
350 507 CASTELLETTI CARLO SESIA RUNNING 1949 MM60 4:44:00.10
351 330 MARINO ENZO ATL.LESSONA 1948 MM60 4:44:11.85
352 239 FARACI PINO ACQUIRUNNERS 1949 MM60 4:44:17.95
353 528 CAROTTI STEFANO POLISPORT. NOVATLETICA CHIERI 1945 MM65 4:44:20.60
354 136 BERTOLETTI WILLIAM G.P. CASTIGLIONESI 1968 MM40 4:45:20.40
355 180 CERRONE SERGIO PIETRO MICCA BIELLA 1956 MM55 4:45:31.00
356 373 PALDINO ALESSANDRO A.S.D. PODISMO DI SERA 1976 MM35 4:46:34.10
357 333 MARTANO GIOVANNI MICHELIN SPORT CLUB TO/CN 1950 MM60 4:46:43.05
358 231 DI SALVO STEFANO 1971 TG 4:47:28.70
359 327 MARCHETTI VINCENZO S.S. TRIONFO LIGURE 1948 MM60 4:47:49.85
360 527 FAILLI LAURA TORRE DEL MANGIA SIENA 1963 MF45 4:48:53.40
361 249 FESTARI GIACINTO 1953 TG 4:49:46.55
362 504 ZAPPINO AGOSTINO 1956 TG 4:51:35.00
363 100 ALIPRANDI RENATO ATL. CAMPO GIURIATI 1948 MM60 4:52:32.30
364 438 SASSONE CLAUDIO ATLETICA VERCELLI 78 1962 MM45 4:52:58.75
365 353 MORANDIN LUCIANO ATL. FOREDIL MACCHINE PADOVA 1947 MM60 4:53:29.85
366 311 LUCCHINI ROBERTO ATLETICA BRESCIA MARATHON 1958 MM50 4:56:40.35
367 547 BRAMBILLA ANDREA 1975 TG 4:57:06.05
368 383 PARRAVICINI ANGELO 1961 TG 4:57:20.80
369 165 CANDELI TINO 1974 TG 4:57:55.35
370 275 GHIRARDI FABRIZIO C.S.C. AMICI DEL CICLO SEZ.POD 1962 MM45 4:58:18.30
371 400 ZANOVELLO NATALE CEDAS LANCIA VERRONE 1954 MM55 4:58:18.65
372 225 DELL'OLMO GIANMARIA TURIN MARATHON 1960 MM50 5:00:04.65
373 341 MATTIOLO OSCAR OMAR TURIN MARATHON 1961 MM50 5:00:04.75
374 220 DE NUZZO MASSIMO 1959 TG 5:00:25.95
375 554 BESOZZI EMANUELE 1959 TG 5:01:10.90
376 318 MAENZA SALVATORE MARCIATORI SAN GIORGIO 1949 MM60 5:02:01.95
377 356 MOSCARDINI WILLIAM 1956 TG 5:02:32.60
378 250 FINIGUERRA FAUSTO PICO RUNNERS 1970 MM40 5:03:38.85
379 338 MASSARI GRETA PICO RUNNERS 1970 MF40 5:03:38.95
380 347 MESSINA ALBERTO ATLETICA VERCELLI 78 1974 MM35 5:04:00.95
381 326 MARCHESINI STEFANIA G.P. CASALESE 1971 MF40 5:05:51.05
382 453 SORESI DOMENICO G.P. CASALESE 1964 MM45 5:05:51.70
383 409 QUESADA DARIO 1964 TG 5:07:50.40
384 526 BETTINI FABIO POL. MENS SANA SIENA 1968 MM40 5:09:06.10
385 493 VIMERCATI ANGELA MARIA MONICA GS AVIS TREVIGLIO G.BRUSAFERRI 1966 MF45 5:10:30.05
386 190 CIMINO FRANCESCO ATLETICA CASELLE '93 1965 MM45 5:10:33.70
387 521 ANCORA VITO PIETRO CUS PRO PATRIA MILANO 1953 MM55 5:11:13.55
388 145 BOLDRIN ADRIANO ATLETICA RIVIERA DEL BRENTA 1952 MM55 5:11:13.60
389 420 RICCARDI ROCCO CEDAS LANCIA VERRONE 1937 MM70 5:11:14.35
390 158 CABRINI FRANCO CANOTTIERI MILANO 1948 MM60 5:11:14.45
391 168 CAPECCI FRANCESCO A.S.D. VILLA DE SANCTIS 1946 MM65 5:11:15.05
392 571 PELLEGRINI PIETRO 1944 TG 5:11:50.20
393 473 TONDO RENATO BASE RUNNING 1950 MM60 5:16:05.05
394 315 LUPO STANGHELLINI DAVIDE VERDE PISELLO GROUP MILANO 1969 MM40 5:16:42.85
395 161 CALARCO DAVIDE ASD POL. PEDAGGIO CASTIGLIONE 1959 MM50 5:18:13.00
396 224 DELL'OCA ANTONIO AMICI DELLO SPORT BRIOSCO-MI 1943 MM65 5:22:47.10
397 549 BELLINI SEVERINO 1953 TG 5:27:08.45
398 305 LETTIERI ROSA G.S. SAN DAMIANESE 1950 MF60 5:27:09.15
399 343 MAZZETTO GIULIO AVIS TORINO 1938 MM70 5:30:47.65
400 389 PERROTTA GIUSEPPE ATL. NOVESE 1959 MM50 5:39:01.80
401 551 ZANELLATO PATRIZIA 1963 TG 5:39:01.80
402 402 POPPI GIORGIO CIRC.RICREATIVO CITTANOVA 1931 MM70 5:42:51.70
403 474 TOSCHI GIANFRANCO A.S.C.D. SILVANO FEDI 1960 MM50 5:42:51.70
404 380 PARACCHINI ROBERTO G.S. GABBI 1943 MM65 5:42:51.70
405 306 LICCARDI MARIO ASD POD. LIPPO CALDERARA 1944 MM65 5:46:15.00
406 463 TARANTINO GABRIELLA S.S. TRIONFO LIGURE 1957 MF50 5:46:36.45

GP Provincia di Vercelli 10km (01 Maggio 2011)
Clas. Pett. Atleta Società Anno Cat. Prestazione
1 1055 LANZO AGOSTINO A.S.D. PODISMO DI SERA 1982 AJPSTM 0:37:12.60
2 1251 PERRONE CARMELO TEAM 2000 1970 AMM40 0:37:24.20
3 1062 MASCOLO HERBERT G.S. SAN MARTINO 1974 AMM35 0:37:27.30
4 1269 ZILVETTI PAOLO TG 0:37:32.50
5 1069 NARDI DIEGO G.S.ALPINI VICENZA 1970 MM40 0:37:33.60
6 1048 GIOVANNINI LUCA G.S. SPLENDOR COSSATO 1968 MM40 0:37:36.70
7 1036 DE NILE MARIO G.S. SPLENDOR COSSATO 1964 MM45 0:37:37.80
8 1002 ARRIGHI DAVIDE POL. PAGNONA 1970 MM40 0:37:42.90
9 1084 SANFILIPPO LUDOVICO A.ATL. CANDELO 1973 MM35 0:37:45.00
10 1014 BIANCONI TATIANA AMATORI LECCO 1965 AMF45 0:37:52.30
11 1082 ROSSI PAOLO LAZIO RUNNERS TEAM A.S.D. 1979 JPSTM 0:38:25.90
12 1066 MISSAGLIA GIANLUCA G.P. I GAMBER DE CUNCURESS 1970 MM40 0:38:27.70
13 1256 PIGA DANILO ASD PODISTICA PERALTO 1970 MM40 0:38:33.90
14 1043 FAVRE ROBERTO POLISPORTIVA ST. CHRISTOPHE SE 1968 MM40 0:38:36.65
15 1219 FLORIA ALESSANDRO 1965 TG 0:38:43.40
16 1040 DI MARCO CALOGERO A.S.D. PODISMO DI SERA 1979 JPSTM 0:38:52.65
17 1213 ZACCONE SIMONE 1984 TG 0:38:58.55
18 1260 MATTE' ROSANNA ATLETICA CANAVESANA 1969 AMF40 0:39:00.05
19 1237 SOFIA NUNZIO PODISTICA TRANESE MM55 0:39:07.75
20 1248 ROIG JOAQUIM 1967 MM40 0:39:14.55
21 1239 PRANDI DANIELE PODISTICA TRANESE JPSTM 0:39:15.50
22 1209 GENTINA DAMIANO PODISTICA ARONA 1983 JPSTM 0:39:22.35
23 1168 SCALCON NADIR G.S. ERMENEGILDO ZEGNA 1968 MM40 0:39:23.25
24 1165 TARGA LUIGI G.S. ERMENEGILDO ZEGNA 1959 MM50 0:39:23.55
25 1255 SEMONELLA CARMINE 1963 TG 0:39:23.85
26 1064 MELZI ALBERTO 1973 TG 0:39:24.05
27 1039 DEVIVO MASSIMO G.S. SPLENDOR COSSATO 1971 MM40 0:39:36.70
28 1174 VISCA ALESSANDRO AVIS ASCOLI MARATHON 1965 MM45 0:39:47.90
29 1119 TEMPORIN MASSIMO SESIA RUNNING 1976 MM35 0:39:51.80
30 1284 CAPOZZOLI ANTONIO 1974 TG 0:39:55.35
31 1262 LATELLA DEMETRIO 1966 TG 0:39:57.45
32 1147 ADDORISIO ALESSANDRO 1981 TG 0:39:58.30
33 1252 LESERRI TOMMASO 1965 TG 0:40:05.90
34 1038 DESTRO SONIA G.S. ERMENEGILDO ZEGNA 1968 AMF40 0:40:13.75
35 1008 BERGAMINI MARCO ASD PODISMO DI SERA 1976 MM35 0:40:16.10
36 1083 SALA CARLO AMATORI LECCO 1948 MM60 0:40:30.50
37 1077 POESIO ANDREA 1984 TG 0:40:32.25
38 1235 LEMBO DOMENICO PODISTICA TRANESE MM50 0:40:36.80
39 1012 BERTUCCI BRUNO EUROATLETICA 2002 1954 MM55 0:40:39.20
40 1242 BERETTA DINO TRIATHLON LECCO 1952 MM60 0:40:42.20
41 1241 VIARENGO SEBASTIANO CAMBIASO RISSO 1968 MM40 0:40:43.35
42 1057 MANCIN DANIELE ATL. IRIENSE VOGHERA 1982 JPSTM 0:40:44.50
43 1006 BENAVENTE GABRIELE A.ATL. CANDELO 1974 MM35 0:40:45.40
44 1214 REGIS RICCARDO 1984 TG 0:40:57.25
45 1120 COSTA GABRIELE 1969 TG 0:41:15.90
46 1037 DELL'OLMO ROBERTO ATLETICA VERCELLI 78 1967 MM40 0:41:15.90
47 1056 LAZZARI FAUSTO AMATORI LECCO 1965 MM45 0:41:17.70
48 1245 DALESSANDRI DONATO 1954 TG 0:41:28.90
49 1198 CAPELLO ENRICO G. P. DILETT. TAPPOROSSO 1975 MM35 0:41:38.10
50 1275 CUZTOCRED DAVIDE 1979 TG 0:41:48.60
51 1029 CASILE LORENZO 1976 TG 0:42:03.50
52 1068 MUSSIO GIOVANNI G.P. TRINESE 1956 MM55 0:42:10.25
53 1027 CARETTONI MARCO G.A.O. LIBERTAS OLEGGIO 1987 JPSTM 0:42:12.40
54 1240 GIANOGLIO CLAUDIO PODISTICA TRANESE MM50 0:42:14.75
55 1140 CONTI MARCO 1973 TG 0:42:15.35
56 1096 ZORZOLI CLEMENTE HAPPY RUNNER CLUB 1962 MM45 0:42:27.00
57 1171 BRENTARO DEMIS A.S.D. PODISMO DI SERA 1978 JPSTM 0:42:31.50
58 1236 MASIERO MASSIMO PODISTICA TRANESE MM45 0:42:32.45
59 1223 FASSOLA ANGELO STEFANO ATLETICA OVEST TICINO 1950 MM60 0:42:34.75
60 1205 FULCHERI ALESSANDRO 1984 TG 0:42:35.25
61 1128 MARANZANA PAOLO 1984 TG 0:42:38.20
62 1121 SCANSETTI MARIO SESIA RUNNING 1963 MM45 0:42:40.30
63 1144 CALLARO ALESSANDRO 1974 TG 0:42:49.75
64 1207 RESTANO RICCARDO SESIA RUNNING 1965 MM45 0:43:03.55
65 1200 STELLA MATTEO 1974 TG 0:43:06.25
66 1041 DI PASQUA DARIO MASSIMILIANO 1982 TG 0:43:13.20
67 1131 MONTAGNINI RICCARDO 1978 TG 0:43:14.30
68 1142 CASSE ANDREA 1977 TG 0:43:16.10
69 1267 CALI' SEBASTIANO 1960 TG 0:43:18.05
70 1175 CORRADINO PAOLO SESIA RUNNING 1969 MM40 0:43:18.70
71 1032 DAMELE PIETRO PODISMO MUGGIANO 1970 MM40 0:43:19.30
72 1129 MELOTTI ROBERTO 1984 TG 0:43:21.50
73 1018 BORRIONE FABIO A.ATL. CANDELO 1975 MM35 0:43:24.15
74 1191 POLLO ARTURO 1978 TG 0:43:32.55
75 1246 FACCO ARMANDO 1962 TG 0:43:35.45
76 1253 CAPURRO FABRIZIO 1973 TG 0:43:53.55
77 1075 PICCINI MAURO G.S. AVIS GAMBOLO' 1965 MM45 0:43:55.50
78 1065 MENEGHETTI LUIGI A.S.D. RUNNING EVOLUTION 1957 MM50 0:44:04.75
79 1276 REGIS CRISTINA 1981 TG 0:44:07.05
80 1182 BARBANO ANDREA 1971 TG 0:44:08.00
81 1053 IMPORTUNA GIANFRANCO A.S.D. NAPOLI NORD MARATHON 1973 MM35 0:44:10.45
82 1188 FERRARA STEFANO 1970 TG 0:44:12.75
83 1187 MISIANO GAETANO 1963 TG 0:44:19.35
84 1135 BAUSANO PAOLO 1977 TG 0:44:19.40
85 1133 LAVAGNO MAURO 1959 TG 0:44:33.50
86 1079 PREDA GIANCARLO NOVARA CHE CORRE 1961 MM50 0:44:34.45
87 1264 BARONE DIEGO TG 0:44:39.10
88 1025 CAPELLONI FRANCESCA G.S. MONTESTELLA 1968 MF40 0:44:41.40
89 1176 SAVINO MAURIZIO SESIA RUNNING 1956 MM55 0:44:47.85
90 1124 LIANTONIO GIOVANNI CEDAS LANCIA VERRONE 1968 MM40 0:44:51.10
91 1146 BAROTTI ANDREA 1977 TG 0:44:55.70
92 1004 BECCARI MASSIMO CEDAS LANCIA VERRONE 1967 MM40 0:45:02.55
93 1204 CAVALLONE PATRIZIO 1984 TG 0:45:12.80
94 1122 SZEGO ALESSANDRA MEDIRUN CUS BERGAMO 1964 MF45 0:45:25.95
95 1192 CALLEGARO SUSANNA 2011 TG 0:45:37.00
96 1148 TREVISAN ALESSANDRO 1969 TG 0:45:46.75
97 1072 PATELLI PIERO 1979 TG 0:45:48.75
98 1086 TAGLIAFERRO ANDREA TEAM OTC COMO 1966 MM45 0:45:51.75
99 1197 MELARA DIEGO 1983 TG 0:45:56.35
100 1011 BERTOLA DAVIDE 1983 TG 0:45:58.60
101 1126 DISPINZERI GIOVANNI ATL. SANTHIA' 1974 MM35 0:46:05.70
102 1193 SIGNORINI FEDERICA G.S. ERMENEGILDO ZEGNA 1965 MF45 0:46:06.60
103 1233 ALESSI CALOGERO PODISTICA TRANESE TG 0:46:06.65
104 1161 RINARELLI MICHELE 1977 TG 0:46:08.65
105 1127 FERRARIS STEFANO ATL. SANTHIA' 1974 MM35 0:46:12.05
106 1159 RAGGI GIUSEPPE 1973 TG 0:46:17.80
107 1220 CORELLA MARCO 1985 TG 0:46:18.80
108 1203 OTTAVIANO LUIGI COGNE 4061 1953 TG 0:46:19.55
109 1078 POLESE FRANCESCA ROAD RUNNERS CLUB MILANO 1972 MF35 0:46:37.20
110 1016 BOCCACCINI LAURA G.S. MONTESTELLA 1971 MF40 0:46:37.25
111 1268 PAPP AGNES KATALIN 1970 TG 0:46:58.25
112 1093 VERCESI DAVIDE G.P. AVIS VIGEVANO-GRAVELLONA 1971 MM40 0:47:00.80
113 1244 RENETTI ROBERTO 1960 TG 0:47:13.60
114 1186 MASCARO MASSIMO 1971 TG 0:47:16.65
115 1013 BESANA CARLO SILVIO ROAD RUNNERS CLUB MILANO 1967 MM40 0:47:25.55
116 1270 ALONSO MARISA 1962 TG 0:47:27.00
117 1015 BIROLO PAOLA CEDAS LANCIA VERRONE 1970 MF40 0:47:47.20
118 1007 BENONE GIACOLETTO LOREDANA ASS. DILET. CANAVESE 2005 1962 MF45 0:47:50.25
119 1173 UGA ANDREA AVIS ASCOLI MARATHON 1965 MM45 0:47:52.00
120 1196 BECCAZI ROBERTO 1973 TG 0:47:54.55
121 1277 BORASIO ALESSANDRO 1994 TG 0:48:02.20
122 1085 STANGALINO ANGELO CARLO ILPRA ATL.VIGEVANO PARCO ACQU. 1956 MM55 0:48:04.10
123 1024 BUZZI GIUSEPPE SESIA RUNNING 1961 MM50 0:48:29.15
124 1274 CUCCONI MASSIMO 1965 TG 0:48:33.60
125 1003 BALDINI ROBERTO 1976 TG 0:48:40.25
126 1125 GENTA GIANNI 1960 TG 0:48:40.55
127 1164 BORASIO ALESSANDRO 1984 TG 0:48:46.60
128 1051 IACHELINI MASSIMO A.P.D. PONT-SAINT-MARTIN 1971 MM40 0:48:51.65
129 1222 PELLEGATTA MARIO ATLETICA OVEST TICINO 1970 MM40 0:49:02.15
130 1134 MAURO RICCARDO 1973 TG 0:49:09.25
131 1185 REYMONDET FICHIRA LARA 1981 TG 0:49:13.25
132 1021 BRESCIANI DAVIDE BASE RUNNING 1953 MM55 0:49:14.20
133 1132 BALZARETTI VALERIO 1978 TG 0:49:29.80
134 1247 GASPARRI GERMAN 1971 MM35 0:49:41.25
135 1215 FIORE STEFANO 1973 TG 0:49:46.15
136 1152 GEMELLI PIETRO 1981 TG 0:49:47.30
137 1081 REALE MAURO S.S. RUNNERS LOANO 1953 MM55 0:49:50.35
138 1058 MARANGONI ROBERTO 1965 TG 0:49:56.25
139 1273 AINA FABIO 1966 TG 0:50:02.70
140 1254 COPPOLA GABRIELLA 1965 TG 0:50:02.75
141 1087 TESTA NADIA 1969 TG 0:50:04.80
142 1061 MARZANI ENRICA G.P. AVIS PAVIA 1959 MF50 0:50:20.85
143 1199 CASALINO EUGENIO 1983 TG 0:50:28.35
144 1150 LINBERTI PAOLO 1968 TG 0:50:28.55
145 1035 DE CESARE NICOLETTA 1956 TG 0:50:30.60
146 1030 COPPINI CINZIA CEDAS LANCIA VERRONE 1968 MF40 0:50:31.70
147 1005 BELLOSSI ELISA CEDAS LANCIA VERRONE 1976 MF35 0:50:36.85
148 1178 AVANZINI FEDERICO 1972 TG 0:50:50.90
149 1094 ZARINO NORBERTO ATLETICA VERCELLI 78 1949 MM60 0:50:54.80
150 1157 MONTAGNOLO FABBRIZIO 1973 TG 0:50:57.95
151 1263 PIO ALBERTO 1952 TG 0:51:00.80
152 1258 DI PASQUALO ROSSELLA 1966 TG 0:51:01.70
153 1180 SAVINO GIULIA 1987 TG 0:51:05.85
154 1076 PILLA EUGENIO ATL. SANTHIA' 1961 MM50 0:51:15.20
155 1020 BOSSOLA ELENA LAZIO RUNNERS TEAM A.S.D. 1978 JPSTF 0:51:18.30
156 1224 PATELLLI PAOLO 1981 TG 0:51:32.25
157 1080 PROSPERO STEFANIA 1970 TG 0:51:43.60
158 1226 FERRARA LUCA 1974 TG 0:51:46.30
159 1201 DAMAGINO STEFANO 1973 TG 0:51:46.55
160 1232 ACERBO FERNANDO PODISTICA TRANESE TG 0:51:48.35
161 1181 BISANTI RITA 1970 TG 0:51:49.90
162 1183 BELLOTTO MARZIA 1972 TG 0:51:49.90
163 1202 OPPEZZO RAFFAELA 1976 TG 0:51:53.50
164 1095 ZENONE OLIVIERO 1979 TG 0:51:55.60
165 1070 PACELLA PRIMO A.S.D. PODISMO DI SERA 1939 MM70 0:52:01.65
166 1042 FAVA FRANCESCO CEDAS LANCIA VERRONE 1949 MM60 0:52:12.00
167 1177 MICOLANO CATERINA 1975 TG 0:52:14.05
168 1166 CREMONESE CINZIA G.S. ERMENEGILDO ZEGNA 1964 MF45 0:52:19.30
169 1261 IACOMUZIO NICOLA 1969 TG 0:52:24.75
170 1130 CANNOBIO SERGIO 1950 TG 0:52:26.80
171 1250 DANIELE STEFANO 1967 TG 0:52:35.85
172 1217 CESARI CLAUDIO 1960 TG 0:52:40.00
173 1238 COMUNANZA SIMONETTA PODISTICA TRANESE TG 0:52:42.30
174 1050 GREPPI LISA G.S. MONTESTELLA 1973 MF35 0:52:44.30
175 1189 RAVIGLIONE PIER GIUSEPPE 1970 TG 0:52:45.80
176 585 KIMANI JAMES MUNJINI 1990 TG 0:53:43.50
177 1141 CERATTI CRISTIAN 1974 TG 0:54:07.10
178 1257 DI GENNARO FABIO 1968 TG 0:54:14.20
179 1028 CARLEVARIS GLORIA 1969 TG 0:54:26.20
180 1195 FERRARA SERGIO LA PODISTICA ROBBIESE 1960 MM50 0:54:27.25
181 1031 CORVETTI ANDREA ATLETICA VERCELLI 1932 MM75 0:54:34.55
182 1184 VALERIOTI ALDO 1981 TG 0:54:58.60
183 1149 PERAZZO SIMONE 1972 TG 0:55:06.15
184 1151 BEVILACQUA SANDRO 1967 TG 0:55:06.45
185 1156 MONCADA M.TERESA 1965 TG 0:55:14.00
186 1044 FERRARIS MASSIMO 1972 TG 0:55:25.20
187 1160 SASSONE GIANLUCA 1976 TG 0:55:47.80
188 1023 BUSTO NICOLA 1976 TG 0:56:03.20
189 1210 PROTTO MARIO ATLETICA VERCELLI 78 1969 MM40 0:56:45.80
190 1123 BOTTAZZI GIANLUCA SESIA RUNNING 1963 MM45 0:57:02.85
191 1046 GAROLLO MANUELA POD.DEGLI AMICI PIANEZZA TO 1961 MF50 0:57:06.45
192 1243 GERMANETTI GRAZIA PIETRO MICCA BIELLA 1954 MF55 0:57:19.00
193 1138 SIMONE DAVIDE 1991 TG 0:57:41.65
194 1017 BORLA ANNALISA 1968 TG 0:58:02.20
195 1092 VANZAN DANIELA 1967 TG 0:58:16.70
196 1001 ALCIATI CLAUDIO TURIN MARATHON 1984 JPSTM 0:58:23.65
197 1154 MANCO LUCA 1972 TG 0:59:33.80
198 1167 ARPOSIO CLAUDIA 1956 TG 0:59:48.85
199 1073 PECCINI MARZIO CEDAS LANCIA VERRONE 1951 MM60 0:59:49.65
200 1063 MATRANGA DANIELA 1962 TG 0:59:53.10
201 1190 BOSSO PIERO 1952 TG 1:00:16.15
202 1272 BELLINCIONI VANDA 1955 TG 1:00:20.90
203 1074 PICCHETTI ILARIA 1988 TG 1:00:30.45
204 1067 MORETTO GESSICA GAZZETTA RUNNERS CLUB 1983 JPSTF 1:00:38.30
205 1153 PISANTE ROSINA 1960 TG 1:00:48.85
206 1225 FLORENCE MARIE 1984 TG 1:00:49.25
207 1089 TRINELLI IVAN 1971 TG 1:00:49.75
208 1143 CAMILO TERESA 1986 TG 1:00:51.95
209 1047 GIANUSSO MICHELE 1973 TG 1:00:52.15
210 1145 BLASCO STEFANIA 1973 TG 1:00:53.85
211 1155 MARSEGLIA PATRIZIA 1980 TG 1:01:00.00
212 1169 GABOTTI IVAN GRUPPO AMICI CORSA PETTINENGO 1978 JPSTM 1:01:42.35
213 1162 SGUAITA CLAUDIA 1973 TG 1:01:42.45
214 1170 TEALDI ITALO 1964 TG 1:01:42.60
215 1194 DE SIMONI MARIA GRAZIA 1954 TG 1:01:46.80
216 1059 MARIAN DANIELA CEDAS LANCIA VERRONE 1961 MF50 1:01:59.00
217 1091 VALASSINA GABRIELLA CANOTTIERI MILANO 1947 MF60 1:02:02.35
218 1229 DELROSSO DEBORAH 1977 TG 1:02:12.65
219 1163 KALMAR IDA MICHELIN SPORT CLUB TO/CN 1950 MF60 1:03:04.40
220 1137 MALINVERNI STEFANIA 1980 TG 1:03:34.80
221 1136 CORRADO SILVIA 1980 TG 1:03:34.90
222 1139 SANFILIPPO G. LUCA 1977 TG 1:03:37.10
223 1211 MALINVERNI LIDIO ATLETICA VERCELLI 78 1941 MM70 1:03:43.05
224 1234 LAROCCA SILVIO PODISTICA TRANESE TG 1:05:09.50
225 1158 ODDONE MONICA 1963 TG 1:05:09.80
226 1249 FOLLIS PIERO 1955 TG 1:15:18.75
227 1221 GARDELLI FELICE 1937 TG 1:29:50.25
228 1266 NARDI RENZO 1952 TG 1:47:40.85

__Informazioni